Time;durP1;ratioP1;P1;durP2;ratioP2;P2;SDS_P1;SDS_P2;PMS_P1;PMS_P2;Temp;Humidity;BMP_temperature;BMP_pressure;BME280_temperature;BME280_humidity;BME280_pressure;Samples;Min_cycle;Max_cycle;Signal;HPM_P1;HPM_P2
2021/08/31 00:00:04;;;;;;;6.67;5.77;;;;;;;17.73;100.00;96276.34;5075095;28;20229;-85
2021/08/31 00:02:33;;;;;;;6.43;5.83;;;;;;;17.84;100.00;96270.47;5074980;28;20251;-85
2021/08/31 00:05:00;;;;;;;6.03;5.37;;;;;;;17.69;100.00;96273.28;5074803;28;20237;-85
2021/08/31 00:07:28;;;;;;;7.43;6.73;;;;;;;17.67;100.00;96269.22;5075115;28;20570;-85
2021/08/31 00:09:56;;;;;;;6.53;5.93;;;;;;;17.49;100.00;96277.75;5074474;28;20644;-85
2021/08/31 00:12:23;;;;;;;6.37;5.83;;;;;;;17.42;100.00;96266.28;5074763;28;20684;-85
2021/08/31 00:14:50;;;;;;;6.23;5.63;;;;;;;17.59;100.00;96264.88;5074624;28;20201;-85
2021/08/31 00:17:18;;;;;;;7.43;5.97;;;;;;;17.63;100.00;96278.59;5075024;28;20582;-85
2021/08/31 00:19:46;;;;;;;8.10;6.03;;;;;;;17.63;100.00;96273.25;5074565;28;20288;-84
2021/08/31 00:22:14;;;;;;;6.83;6.13;;;;;;;17.54;100.00;96280.63;5074419;28;20246;-85
2021/08/31 00:24:41;;;;;;;6.73;6.20;;;;;;;17.61;100.00;96275.31;5074505;28;20193;-84
2021/08/31 00:27:09;;;;;;;7.70;5.80;;;;;;;17.24;100.00;96288.91;5074774;28;20316;-84
2021/08/31 00:29:36;;;;;;;6.90;6.27;;;;;;;17.08;100.00;96286.63;5073626;28;20233;-84
2021/08/31 00:32:04;;;;;;;8.13;6.27;;;;;;;17.17;100.00;96285.44;5074251;28;20207;-84
2021/08/31 00:34:32;;;;;;;7.27;6.67;;;;;;;17.27;100.00;96296.50;5074264;28;20204;-84
2021/08/31 00:37:00;;;;;;;6.17;5.67;;;;;;;17.46;100.00;96286.16;5074381;28;20700;-85
2021/08/31 00:39:28;;;;;;;6.43;5.93;;;;;;;17.16;100.00;96291.75;5074107;28;20239;-84
2021/08/31 00:41:55;;;;;;;8.27;5.40;;;;;;;17.21;100.00;96294.63;5074140;28;20196;-85
2021/08/31 00:44:23;;;;;;;6.83;5.87;;;;;;;17.10;100.00;96297.88;5073916;28;20235;-85
2021/08/31 00:46:51;;;;;;;6.40;5.80;;;;;;;17.32;100.00;96302.03;5074446;28;20193;-85
2021/08/31 00:49:18;;;;;;;7.57;6.87;;;;;;;17.29;100.00;96299.78;5073988;28;20201;-85
2021/08/31 00:51:46;;;;;;;6.60;6.00;;;;;;;17.35;100.00;96298.16;5074246;28;20203;-85
2021/08/31 00:54:17;;;;;;;6.30;5.80;;;;;;;17.38;100.00;96296.94;5074002;28;20201;-85
2021/08/31 00:56:45;;;;;;;5.93;5.43;;;;;;;17.50;100.00;96298.00;5074164;28;20267;-85
2021/08/31 00:59:13;;;;;;;7.53;6.17;;;;;;;17.41;100.00;96297.34;5073722;28;20291;-84
2021/08/31 01:01:40;;;;;;;6.70;5.83;;;;;;;17.27;100.00;96303.66;5073876;28;20197;-84
2021/08/31 01:04:07;;;;;;;6.17;5.57;;;;;;;17.22;100.00;96298.94;5073644;28;20215;-85
2021/08/31 01:06:34;;;;;;;6.20;5.70;;;;;;;17.16;100.00;96302.38;5073811;28;20204;-85
2021/08/31 01:09:02;;;;;;;7.00;6.40;;;;;;;16.97;100.00;96292.50;5073334;28;20315;-85
2021/08/31 01:11:31;;;;;;;6.53;5.93;;;;;;;17.08;100.00;96300.72;5073676;28;20200;-85
2021/08/31 01:13:59;;;;;;;6.23;5.63;;;;;;;17.01;100.00;96291.94;5073498;28;20239;-85
2021/08/31 01:16:27;;;;;;;6.17;5.67;;;;;;;17.16;100.00;96294.41;5073646;28;20204;-85
2021/08/31 01:18:54;;;;;;;7.33;6.63;;;;;;;16.89;100.00;96290.84;5073139;28;20192;-84
2021/08/31 01:21:21;;;;;;;6.07;5.57;;;;;;;16.73;100.00;96291.97;5073557;28;20208;-85
2021/08/31 01:23:49;;;;;;;6.60;6.00;;;;;;;16.72;100.00;96285.00;5073259;28;20199;-85
2021/08/31 01:26:18;;;;;;;6.83;6.27;;;;;;;16.71;100.00;96288.69;5073219;28;20727;-84
2021/08/31 01:28:46;;;;;;;7.27;6.10;;;;;;;16.84;100.00;96282.66;5073178;28;20224;-85
2021/08/31 01:31:13;;;;;;;5.93;5.43;;;;;;;17.02;100.00;96287.44;5073314;28;20261;-85
2021/08/31 01:33:40;;;;;;;7.27;6.27;;;;;;;17.02;100.00;96295.38;5073127;28;20230;-85
2021/08/31 01:36:18;;;;;;;6.53;5.93;;;;;;;16.96;100.00;96298.84;5073034;28;20204;-84
2021/08/31 01:38:46;;;;;;;6.80;6.10;;;;;;;16.84;100.00;96291.44;5073400;28;20191;-85
2021/08/31 01:41:13;;;;;;;7.00;6.07;;;;;;;16.70;100.00;96296.84;5072142;28;20212;-85
2021/08/31 01:43:42;;;;;;;7.03;6.40;;;;;;;16.74;100.00;96298.94;5072918;28;20227;-86
2021/08/31 01:46:10;;;;;;;6.23;5.73;;;;;;;16.54;100.00;96300.63;5073307;28;20629;-85
2021/08/31 01:48:37;;;;;;;7.53;6.43;;;;;;;16.40;100.00;96292.59;5072707;28;20220;-85
2021/08/31 01:51:05;;;;;;;5.60;5.10;;;;;;;16.48;100.00;96293.44;5072910;28;20205;-85
2021/08/31 01:53:33;;;;;;;6.90;6.30;;;;;;;16.47;100.00;96294.47;5072967;28;20227;-84
2021/08/31 01:56:00;;;;;;;7.47;6.83;;;;;;;16.37;100.00;96297.47;5073416;28;20735;-85
2021/08/31 01:58:28;;;;;;;8.93;6.40;;;;;;;16.48;100.00;96298.75;5072415;28;20360;-85
2021/08/31 02:00:57;;;;;;;6.37;5.77;;;;;;;16.52;100.00;96300.00;5072711;28;20237;-84
2021/08/31 02:03:24;;;;;;;6.77;6.17;;;;;;;16.51;100.00;96298.34;5072540;28;20205;-84
2021/08/31 02:05:51;;;;;;;6.63;6.10;;;;;;;16.56;100.00;96288.00;5072896;28;20206;-85
2021/08/31 02:08:18;;;;;;;7.50;6.57;;;;;;;16.58;100.00;96286.75;5072403;28;20232;-84
2021/08/31 02:10:46;;;;;;;5.37;4.93;;;;;;;16.51;100.00;96295.72;5072924;28;20226;-84
2021/08/31 02:13:13;;;;;;;6.63;5.93;;;;;;;16.64;100.00;96293.94;5072609;28;20230;-84
2021/08/31 02:15:41;;;;;;;6.93;6.23;;;;;;;16.69;100.00;96298.66;5072263;28;20200;-84
2021/08/31 02:18:09;;;;;;;8.13;6.57;;;;;;;16.51;100.00;96288.56;5072151;28;20299;-84
2021/08/31 02:20:37;;;;;;;6.80;5.43;;;;;;;16.52;100.00;96292.03;5072719;28;20714;-85
2021/08/31 02:23:04;;;;;;;7.27;6.10;;;;;;;16.44;100.00;96285.06;5072321;28;20211;-85
2021/08/31 02:25:32;;;;;;;7.57;6.10;;;;;;;16.34;100.00;96293.34;5072657;28;20640;-84
2021/08/31 02:27:59;;;;;;;7.60;6.37;;;;;;;16.22;100.00;96286.97;5071977;28;20234;-84
2021/08/31 02:30:27;;;;;;;7.13;6.43;;;;;;;16.29;100.00;96287.81;5072468;28;20711;-83
2021/08/31 02:32:59;;;;;;;6.77;6.07;;;;;;;16.25;100.00;96286.56;5072012;28;20204;-84
2021/08/31 02:35:29;;;;;;;6.93;6.17;;;;;;;16.13;100.00;96291.56;5072460;28;20602;-84
2021/08/31 02:37:56;;;;;;;7.57;6.93;;;;;;;16.26;100.00;96280.25;5072244;28;20198;-83
2021/08/31 02:40:24;;;;;;;7.10;6.23;;;;;;;16.35;100.00;96283.59;5072122;28;20202;-84
2021/08/31 02:42:51;;;;;;;6.43;5.83;;;;;;;16.08;100.00;96283.38;5071769;28;20792;-84
2021/08/31 02:45:18;;;;;;;7.23;6.47;;;;;;;16.26;100.00;96290.84;5071827;28;20187;-84
2021/08/31 02:47:46;;;;;;;6.93;6.30;;;;;;;16.17;100.00;96292.84;5071815;28;20258;-84
2021/08/31 02:50:13;;;;;;;7.33;5.90;;;;;;;16.21;100.00;96293.28;5071934;28;20291;-85
2021/08/31 02:52:44;;;;;;;6.47;5.87;;;;;;;15.93;100.00;96299.38;5071629;28;20229;-84
2021/08/31 02:55:12;;;;;;;6.97;6.37;;;;;;;15.90;100.00;96291.00;5071819;28;20188;-84
2021/08/31 02:57:39;;;;;;;8.93;6.90;;;;;;;16.07;100.00;96296.81;5071833;28;20296;-84
2021/08/31 03:00:08;;;;;;;6.63;6.03;;;;;;;15.92;100.00;96300.38;5071522;28;20401;-84
2021/08/31 03:02:35;;;;;;;6.47;5.90;;;;;;;16.13;100.00;96299.53;5071827;28;20705;-84
2021/08/31 03:05:03;;;;;;;6.40;5.80;;;;;;;16.16;100.00;96306.28;5072155;28;20254;-84
2021/08/31 03:07:30;;;;;;;11.47;6.20;;;;;;;16.21;100.00;96303.03;5071982;28;20582;-84
2021/08/31 03:09:59;;;;;;;6.90;5.93;;;;;;;16.28;100.00;96304.75;5071501;28;20666;-84
2021/08/31 03:12:26;;;;;;;6.57;5.97;;;;;;;16.32;100.00;96306.00;5072084;28;20630;-84
2021/08/31 03:14:55;;;;;;;6.40;5.70;;;;;;;16.08;100.00;96309.91;5071569;28;20203;-83
2021/08/31 03:17:22;;;;;;;7.20;6.27;;;;;;;16.23;100.00;96306.34;5071681;28;20281;-84
2021/08/31 03:19:50;;;;;;;6.00;5.50;;;;;;;16.26;100.00;96312.06;5071306;28;20285;-84
2021/08/31 03:22:17;;;;;;;6.03;5.50;;;;;;;16.32;100.00;96306.00;5071647;28;20289;-84
2021/08/31 03:24:44;;;;;;;7.17;6.57;;;;;;;16.34;100.00;96311.09;5071491;28;20266;-84
2021/08/31 03:27:13;;;;;;;6.77;6.17;;;;;;;16.23;100.00;96317.75;5071601;28;20197;-84
2021/08/31 03:29:40;;;;;;;6.83;6.20;;;;;;;16.22;100.00;96315.31;5071321;28;20312;-83
2021/08/31 03:32:08;;;;;;;6.90;6.20;;;;;;;16.14;100.00;96316.25;5071367;28;20237;-83
2021/08/31 03:34:36;;;;;;;6.83;6.23;;;;;;;16.08;100.00;96317.03;5071700;28;20195;-84
2021/08/31 03:37:03;;;;;;;6.90;6.03;;;;;;;16.13;100.00;96315.44;5071764;28;20586;-84
2021/08/31 03:39:30;;;;;;;6.23;5.40;;;;;;;16.26;100.00;96328.00;5071198;28;20246;-85
2021/08/31 03:41:57;;;;;;;7.37;6.67;;;;;;;16.12;100.00;96320.94;5071406;28;20195;-84
2021/08/31 03:44:26;;;;;;;8.50;6.70;;;;;;;16.02;100.00;96325.75;5071088;28;20660;-85
2021/08/31 03:46:53;;;;;;;8.40;6.90;;;;;;;15.92;100.00;96328.72;5071579;28;20281;-85
2021/08/31 03:49:21;;;;;;;7.10;6.40;;;;;;;15.98;100.00;96327.16;5070950;28;20223;-86
2021/08/31 03:51:48;;;;;;;6.30;5.70;;;;;;;15.87;100.00;96337.25;5071389;28;20691;-86
2021/08/31 03:54:15;;;;;;;7.33;6.63;;;;;;;15.64;100.00;96336.56;5071383;28;20385;-86
2021/08/31 03:56:42;;;;;;;7.33;6.10;;;;;;;15.73;100.00;96332.84;5071347;28;20198;-86
2021/08/31 03:59:10;;;;;;;8.83;6.83;;;;;;;15.89;100.00;96337.88;5070942;28;20205;-86
2021/08/31 04:01:38;;;;;;;8.00;6.17;;;;;;;15.71;100.00;96340.16;5071303;28;20293;-85
2021/08/31 04:04:06;;;;;;;10.73;5.90;;;;;;;15.58;100.00;96338.13;5071938;28;20201;-84
2021/08/31 04:06:33;;;;;;;8.43;6.83;;;;;;;15.65;100.00;96346.16;5073648;28;20732;-84
2021/08/31 04:09:00;;;;;;;7.40;5.50;;;;;;;15.73;100.00;96348.75;5074083;28;20222;-81
2021/08/31 04:11:27;;;;;;;6.37;5.77;;;;;;;15.59;100.00;96349.59;5074407;28;20197;-81
2021/08/31 04:13:55;;;;;;;7.17;6.07;;;;;;;15.58;100.00;96358.53;5074384;28;20269;-82
2021/08/31 04:16:22;;;;;;;7.37;6.10;;;;;;;15.85;100.00;96352.50;5074803;28;20188;-81
2021/08/31 04:18:51;;;;;;;7.30;6.67;;;;;;;15.80;100.00;96354.91;5074319;28;20253;-82
2021/08/31 04:21:18;;;;;;;6.80;6.20;;;;;;;16.10;100.00;96357.41;5074643;28;20198;-81
2021/08/31 04:23:45;;;;;;;13.10;7.07;;;;;;;16.20;100.00;96343.84;5074498;28;20644;-81
2021/08/31 04:26:13;;;;;;;8.03;7.13;;;;;;;16.15;100.00;96363.00;5074554;28;20645;-80
2021/08/31 04:28:40;;;;;;;6.77;6.17;;;;;;;16.06;100.00;96358.81;5074115;28;20230;-81
2021/08/31 04:31:08;;;;;;;6.43;5.87;;;;;;;15.89;100.00;96361.72;5074460;28;20201;-81
2021/08/31 04:33:35;;;;;;;6.53;5.83;;;;;;;15.97;100.00;96362.59;5074648;28;20608;-81
2021/08/31 04:36:04;;;;;;;6.87;6.17;;;;;;;15.98;100.00;96358.97;5074415;28;20218;-80
2021/08/31 04:38:31;;;;;;;7.83;5.67;;;;;;;15.72;100.00;96362.97;5074024;28;20232;-81
2021/08/31 04:40:58;;;;;;;8.23;6.50;;;;;;;15.93;100.00;96363.00;5074345;28;20197;-81
2021/08/31 04:43:27;;;;;;;7.60;6.87;;;;;;;15.95;100.00;96364.63;5073929;28;20230;-81
2021/08/31 04:45:54;;;;;;;6.73;6.17;;;;;;;15.95;100.00;96362.81;5074245;28;20202;-81
2021/08/31 04:48:22;;;;;;;6.20;5.70;;;;;;;16.15;100.00;96355.03;5073768;28;20668;-81
2021/08/31 04:50:49;;;;;;;6.37;5.43;;;;;;;15.97;100.00;96360.78;5074391;28;20285;-81
2021/08/31 04:53:20;;;;;;;7.03;6.07;;;;;;;16.21;100.00;96366.69;5073876;28;20291;-81
2021/08/31 04:55:47;;;;;;;7.30;5.97;;;;;;;16.34;100.00;96357.00;5073836;28;20185;-82
2021/08/31 04:58:14;;;;;;;7.33;5.87;;;;;;;16.40;100.00;96361.56;5073833;28;20276;-82
2021/08/31 05:00:42;;;;;;;7.07;6.37;;;;;;;16.36;100.00;96355.00;5073991;28;20237;-82
2021/08/31 05:03:09;;;;;;;6.53;5.97;;;;;;;16.40;100.00;96358.91;5073711;28;20206;-82
2021/08/31 05:05:36;;;;;;;5.67;5.17;;;;;;;16.26;100.00;96356.34;5073907;28;20245;-81
2021/08/31 05:08:04;;;;;;;6.67;5.60;;;;;;;16.24;100.00;96359.16;5073587;28;20207;-81
2021/08/31 05:10:32;;;;;;;6.97;6.33;;;;;;;16.18;100.00;96362.63;5073923;28;20231;-81
2021/08/31 05:13:00;;;;;;;7.23;6.43;;;;;;;16.19;100.00;96358.13;5073607;28;20289;-81
2021/08/31 05:15:28;;;;;;;8.80;6.50;;;;;;;16.32;100.00;96356.41;5073477;28;20283;-81
2021/08/31 05:17:55;;;;;;;6.93;6.33;;;;;;;16.28;100.00;96357.78;5073629;28;20269;-81
2021/08/31 05:20:25;;;;;;;6.47;5.97;;;;;;;16.19;100.00;96350.97;5073543;28;20204;-81
2021/08/31 05:22:53;;;;;;;8.33;6.57;;;;;;;16.32;100.00;96348.44;5073483;28;20199;-81
2021/08/31 05:25:20;;;;;;;7.33;6.47;;;;;;;16.47;100.00;96345.69;5073444;28;20206;-81
2021/08/31 05:27:49;;;;;;;6.50;5.60;;;;;;;16.66;100.00;96344.19;5073158;28;20294;-81
2021/08/31 05:30:16;;;;;;;6.90;6.13;;;;;;;16.98;100.00;96342.75;5073574;28;20693;-81
2021/08/31 05:32:44;;;;;;;6.43;5.83;;;;;;;17.08;100.00;96342.41;5073223;28;20196;-81
2021/08/31 05:35:12;;;;;;;6.40;5.80;;;;;;;17.14;100.00;96344.25;5073205;28;20211;-81
2021/08/31 05:37:39;;;;;;;7.87;6.00;;;;;;;17.30;100.00;96343.91;5073068;28;20205;-81
2021/08/31 05:40:08;;;;;;;6.67;6.07;;;;;;;17.30;100.00;96343.91;5073394;28;20569;-81
2021/08/31 05:42:35;;;;;;;8.07;6.43;;;;;;;17.39;100.00;96343.72;5072926;28;20203;-81
2021/08/31 05:45:05;;;;;;;6.53;5.87;;;;;;;17.50;100.00;96346.66;5072837;28;20187;-81
2021/08/31 05:47:33;;;;;;;8.77;6.43;;;;;;;17.45;100.00;96345.59;5073048;28;20225;-82
2021/08/31 05:50:00;;;;;;;7.80;6.07;;;;;;;17.43;100.00;96342.34;5072743;28;20227;-82
2021/08/31 05:52:27;;;;;;;10.63;6.70;;;;;;;17.65;100.00;96343.00;5072927;28;20228;-81
2021/08/31 05:54:54;;;;;;;8.17;6.20;;;;;;;17.87;100.00;96336.50;5072701;28;20288;-81
2021/08/31 05:57:22;;;;;;;10.97;7.03;;;;;;;17.95;100.00;96343.50;5072632;28;20676;-82
2021/08/31 05:59:49;;;;;;;7.90;5.87;;;;;;;18.03;100.00;96351.28;5072560;28;20668;-82
2021/08/31 06:02:18;;;;;;;7.10;6.50;;;;;;;18.11;100.00;96348.41;5072812;28;20201;-82
2021/08/31 06:04:45;;;;;;;6.97;6.37;;;;;;;18.08;100.00;96348.84;5072842;28;20229;-82
2021/08/31 06:07:13;;;;;;;9.67;6.77;;;;;;;18.25;100.00;96349.22;5072467;28;20239;-82
2021/08/31 06:09:41;;;;;;;10.37;6.77;;;;;;;18.38;100.00;96354.56;5072691;28;20247;-82
2021/08/31 06:12:10;;;;;;;8.33;6.13;;;;;;;18.53;100.00;96351.66;5072877;28;20681;-83
2021/08/31 06:14:38;;;;;;;13.23;7.00;;;;;;;18.67;100.00;96353.31;5072677;28;20215;-82
2021/08/31 06:17:06;;;;;;;7.57;6.43;;;;;;;18.96;100.00;96356.56;5072318;28;20585;-82
2021/08/31 06:19:36;;;;;;;7.53;6.50;;;;;;;19.21;100.00;96360.16;5072354;28;20292;-82
2021/08/31 06:22:03;;;;;;;6.40;5.90;;;;;;;19.29;100.00;96367.09;5072376;28;20197;-82
2021/08/31 06:24:31;;;;;;;6.43;5.80;;;;;;;19.45;100.00;96371.94;5072502;28;20197;-81
2021/08/31 06:26:58;;;;;;;6.83;6.23;;;;;;;19.54;100.00;96380.53;5071827;28;20644;-82
2021/08/31 06:29:25;;;;;;;5.37;4.87;;;;;;;19.69;100.00;96393.63;5071984;28;20228;-82
2021/08/31 06:31:53;;;;;;;6.47;5.97;;;;;;;19.88;100.00;96391.88;5072551;28;20208;-82
2021/08/31 06:34:20;;;;;;;6.73;6.13;;;;;;;19.97;100.00;96393.25;5071743;28;20642;-82
2021/08/31 06:36:49;;;;;;;6.10;5.47;;;;;;;20.21;100.00;96388.19;5072209;28;20201;-82
2021/08/31 06:39:16;;;;;;;7.20;5.93;;;;;;;20.34;100.00;96393.44;5072224;28;20280;-82
2021/08/31 06:41:44;;;;;;;6.33;5.50;;;;;;;20.58;100.00;96391.84;5071892;28;20201;-82
2021/08/31 06:44:11;;;;;;;6.17;5.57;;;;;;;20.80;100.00;96403.75;5071710;28;20239;-82
2021/08/31 06:46:39;;;;;;;6.40;5.80;;;;;;;20.96;100.00;96420.25;5072080;28;20200;-82
2021/08/31 06:49:06;;;;;;;5.67;5.17;;;;;;;21.04;100.00;96414.63;5071607;28;20231;-82
2021/08/31 06:51:34;;;;;;;5.60;4.87;;;;;;;21.40;100.00;96411.16;5072022;28;20192;-82
2021/08/31 06:54:03;;;;;;;6.27;5.67;;;;;;;21.49;100.00;96415.19;5072109;28;20279;-82
2021/08/31 06:56:30;;;;;;;6.37;5.13;;;;;;;21.48;100.00;96429.59;5071950;28;20287;-82
2021/08/31 06:58:58;;;;;;;10.17;5.70;;;;;;;21.66;100.00;96414.59;5071842;28;20288;-82
2021/08/31 07:01:25;;;;;;;5.63;5.20;;;;;;;22.01;100.00;96420.91;5071992;28;20299;-82
2021/08/31 07:03:52;;;;;;;6.40;5.47;;;;;;;22.17;100.00;96432.03;5071789;28;20197;-82
2021/08/31 07:06:20;;;;;;;5.77;5.00;;;;;;;22.11;100.00;96454.34;5071868;28;20292;-82
2021/08/31 07:08:48;;;;;;;5.93;5.43;;;;;;;22.32;100.00;96456.53;5071304;28;20729;-83
2021/08/31 07:11:16;;;;;;;6.60;5.50;;;;;;;22.58;100.00;96458.00;5071842;28;20688;-82
2021/08/31 07:13:44;;;;;;;6.17;5.63;;;;;;;23.05;100.00;96457.28;5071923;28;20208;-82
2021/08/31 07:16:11;;;;;;;6.50;5.43;;;;;;;23.14;100.00;96459.41;5071758;28;20197;-82
2021/08/31 07:18:39;;;;;;;6.00;5.37;;;;;;;23.35;100.00;96465.22;5071728;28;20752;-82
2021/08/31 07:21:06;;;;;;;6.33;5.83;;;;;;;23.48;100.00;96459.59;5071658;28;20235;-83
2021/08/31 07:23:34;;;;;;;6.10;5.53;;;;;;;23.29;100.00;96466.97;5071493;28;20727;-82
2021/08/31 07:26:01;;;;;;;6.13;5.63;;;;;;;23.62;100.00;96460.97;5071931;28;20284;-83
2021/08/31 07:28:30;;;;;;;5.57;5.07;;;;;;;23.98;100.00;96455.56;5071450;28;20201;-83
2021/08/31 07:30:57;;;;;;;5.80;5.30;;;;;;;23.95;100.00;96468.38;5071359;28;20267;-83
2021/08/31 07:33:24;;;;;;;5.20;4.80;;;;;;;24.22;100.00;96462.47;5071374;28;20193;-82
2021/08/31 07:35:52;;;;;;;6.93;5.57;;;;;;;24.22;100.00;96459.78;5071559;28;20704;-83
2021/08/31 07:38:19;;;;;;;5.97;5.37;;;;;;;24.51;100.00;96457.09;5072288;28;20688;-82
2021/08/31 07:40:46;;;;;;;6.20;5.70;;;;;;;24.55;100.00;96460.91;5075791;28;20284;-83
2021/08/31 07:43:14;;;;;;;5.87;5.37;;;;;;;24.72;100.00;96458.25;5074865;28;20237;-82
2021/08/31 07:45:43;;;;;;;6.77;5.57;;;;;;;25.29;100.00;96464.28;5075372;28;20193;-83
2021/08/31 07:48:10;;;;;;;5.43;5.03;;;;;;;25.53;100.00;96470.28;5075515;28;20685;-83
2021/08/31 07:50:38;;;;;;;6.80;5.40;;;;;;;25.96;100.00;96470.56;5075267;28;20221;-83
2021/08/31 07:53:05;;;;;;;5.87;5.13;;;;;;;26.18;100.00;96475.94;5075041;28;20236;-83
2021/08/31 07:55:32;;;;;;;6.13;5.63;;;;;;;25.40;100.00;96484.06;5075180;28;20295;-83
2021/08/31 07:57:59;;;;;;;7.40;5.37;;;;;;;25.45;100.00;96484.13;5074944;28;20627;-83
2021/08/31 08:00:27;;;;;;;6.60;5.60;;;;;;;25.77;100.00;96464.63;5075104;28;20208;-83
2021/08/31 08:02:55;;;;;;;6.80;5.90;;;;;;;25.92;100.00;96472.94;5074666;28;20288;-83
2021/08/31 08:05:23;;;;;;;6.40;5.90;;;;;;;26.62;100.00;96463.22;5075018;28;20208;-83
2021/08/31 08:07:50;;;;;;;5.90;5.40;;;;;;;26.85;100.00;96472.03;5074878;28;20194;-83
2021/08/31 08:10:17;;;;;;;6.43;5.83;;;;;;;27.01;100.00;96476.47;5074784;28;20227;-83
2021/08/31 08:12:45;;;;;;;6.43;5.83;;;;;;;27.32;100.00;96479.44;5074813;28;20204;-83
2021/08/31 08:15:12;;;;;;;5.68;5.28;;;;;;;27.34;100.00;96477.28;5075097;28;20200;-83
2021/08/31 08:17:40;;;;;;;6.73;5.73;;;;;;;26.90;100.00;96472.06;5074784;28;20262;-83
2021/08/31 08:20:11;;;;;;;5.75;5.25;;;;;;;26.45;100.00;96459.78;5074419;28;20288;-83
2021/08/31 08:22:38;;;;;;;6.53;5.87;;;;;;;26.68;100.00;96472.97;5075073;28;20185;-82
2021/08/31 08:25:07;;;;;;;6.25;5.65;;;;;;;26.96;100.00;96476.44;5074857;28;20204;-83
2021/08/31 08:27:34;;;;;;;6.07;5.57;;;;;;;27.67;100.00;96490.41;5074630;28;20254;-83
2021/08/31 08:30:02;;;;;;;5.60;5.20;;;;;;;27.63;100.00;96485.81;5074116;28;20260;-83
2021/08/31 08:32:29;;;;;;;5.95;5.45;;;;;;;26.92;100.00;96481.53;5074805;28;20223;-82
2021/08/31 08:34:57;;;;;;;6.20;5.60;;;;;;;27.57;100.00;96486.84;5074384;28;20271;-83
2021/08/31 08:37:26;;;;;;;6.97;5.18;;;;;;;27.21;100.00;96478.53;5074393;28;20551;-82
2021/08/31 08:39:53;;;;;;;6.10;5.15;;;;;;;27.18;100.00;96487.97;5074082;28;20229;-83
2021/08/31 08:42:21;;;;;;;6.35;5.30;;;;;;;27.48;100.00;96478.44;5074366;28;20293;-83
2021/08/31 08:44:49;;;;;;;6.32;5.82;;;;;;;27.29;100.00;96482.63;5073974;28;20247;-83
2021/08/31 08:47:16;;;;;;;6.25;5.75;;;;;;;27.20;100.00;96488.53;5074273;28;20193;-83
2021/08/31 08:49:46;;;;;;;5.47;5.07;;;;;;;27.62;100.00;96489.59;5073141;28;20265;-83
2021/08/31 08:52:13;;;;;;;6.40;5.80;;;;;;;27.44;100.00;96486.25;5074510;28;20196;-83
2021/08/31 08:54:43;;;;;;;5.55;5.05;;;;;;;27.64;100.00;96488.28;5073937;28;20681;-83
2021/08/31 08:57:11;;;;;;;7.93;5.82;;;;;;;27.94;100.00;96487.63;5074094;28;20197;-83
2021/08/31 08:59:41;;;;;;;6.03;5.43;;;;;;;28.15;100.00;96479.59;5073690;28;20224;-83
2021/08/31 09:02:10;;;;;;;7.28;5.90;;;;;;;27.33;100.00;96483.75;5074117;28;20185;-82
2021/08/31 09:04:45;;;;;;;7.05;6.32;;;;;;;27.39;100.00;96480.81;5074108;28;20254;-83
2021/08/31 09:07:23;;;;;;;6.13;5.63;;;;;;;27.46;100.00;96477.88;5073766;28;20305;-82
2021/08/31 09:10:12;;;;;;;6.10;5.30;;;;;;;28.17;100.00;96474.75;5073585;28;20231;-83
2021/08/31 09:12:39;;;;;;;5.85;5.28;;;;;;;27.68;100.00;96483.16;5073793;28;20181;-82
2021/08/31 09:15:30;;;;;;;6.55;5.95;;;;;;;28.15;100.00;96472.28;5073673;28;20193;-83
2021/08/31 09:18:16;;;;;;;7.38;6.70;;;;;;;28.83;100.00;96474.88;5073686;28;20246;-82
2021/08/31 09:20:47;;;;;;;7.20;6.60;;;;;;;28.93;100.00;96463.25;5073728;28;20638;-83
2021/08/31 09:23:20;;;;;;;6.78;5.78;;;;;;;28.15;100.00;96466.88;5073517;28;20653;-82
2021/08/31 09:25:51;;;;;;;6.93;6.32;;;;;;;27.56;100.00;96464.44;5073318;28;20228;-83
2021/08/31 09:28:24;;;;;;;6.82;6.13;;;;;;;27.44;100.00;96450.38;5073381;28;20196;-83
2021/08/31 09:31:05;;;;;;;6.80;6.20;;;;;;;28.11;100.00;96452.28;5073367;28;20245;-82
2021/08/31 09:33:34;;;;;;;6.70;6.18;;;;;;;27.76;100.00;96462.97;5073310;28;20181;-82
2021/08/31 09:36:05;;;;;;;6.18;5.57;;;;;;;27.87;100.00;96468.16;5073605;28;20201;-82
2021/08/31 09:38:47;;;;;;;7.20;6.50;;;;;;;27.69;100.00;96460.47;5073315;28;20238;-82
2021/08/31 09:41:35;;;;;;;6.75;5.20;;;;;;;28.08;100.00;96457.41;5073241;28;20188;-83
2021/08/31 09:44:04;;;;;;;6.85;6.13;;;;;;;28.09;100.00;96453.63;5072885;28;20268;-83
2021/08/31 09:46:54;;;;;;;7.13;6.43;;;;;;;28.47;100.00;96457.81;5073136;28;20208;-83
2021/08/31 09:49:23;;;;;;;6.82;6.22;;;;;;;28.68;100.00;96454.06;5073058;28;20195;-83
2021/08/31 09:52:17;;;;;;;7.20;6.03;;;;;;;28.28;100.00;96443.97;5072961;28;20666;-83
2021/08/31 09:54:47;;;;;;;6.80;6.20;;;;;;;28.46;100.00;96447.28;5014808;28;20228;-83
2021/08/31 09:57:27;;;;;;;5.97;5.47;;;;;;;28.51;100.00;96437.28;5072987;28;20201;-83
2021/08/31 09:59:55;;;;;;;6.70;6.10;;;;;;;27.80;100.00;96435.16;5072442;28;20181;-83
2021/08/31 10:02:22;;;;;;;7.32;6.72;;;;;;;27.67;100.00;96433.72;5071946;28;20189;-83
2021/08/31 10:04:51;;;;;;;6.85;6.03;;;;;;;28.06;100.00;96425.28;5072554;28;20240;-83
2021/08/31 10:07:20;;;;;;;6.80;6.20;;;;;;;28.71;100.00;96419.44;5073090;28;20248;-83
2021/08/31 10:09:48;;;;;;;6.20;5.70;;;;;;;29.56;100.00;96431.25;5072435;28;20204;-83
2021/08/31 10:12:19;;;;;;;6.88;6.30;;;;;;;29.29;100.00;96425.34;5072666;28;20236;-83
2021/08/31 10:14:52;;;;;;;8.23;6.75;;;;;;;28.48;100.00;96421.59;5072670;28;20185;-83
2021/08/31 10:17:23;;;;;;;6.85;6.25;;;;;;;28.79;100.00;96422.41;5072649;28;20635;-83
2021/08/31 10:19:52;;;;;;;6.47;5.90;;;;;;;29.33;100.00;96418.31;5072271;28;20181;-83
2021/08/31 10:22:21;;;;;;;6.95;6.35;;;;;;;29.75;100.00;96409.78;5072464;28;20292;-83
2021/08/31 10:24:50;;;;;;;6.53;6.03;;;;;;;29.40;100.00;96405.28;5072139;28;20272;-83
2021/08/31 10:27:34;;;;;;;6.93;6.32;;;;;;;29.52;100.00;96413.94;5072393;28;20193;-83
2021/08/31 10:30:34;;;;;;;6.57;5.97;;;;;;;28.89;100.00;96413.50;5071894;28;20339;-83
2021/08/31 10:33:05;;;;;;;7.13;5.85;;;;;;;28.41;100.00;96415.66;5072144;28;20185;-83
2021/08/31 10:35:52;;;;;;;6.88;6.22;;;;;;;27.84;100.00;96406.53;5072454;28;20280;-83
2021/08/31 10:38:56;;;;;;;7.07;6.10;;;;;;;27.44;100.00;96396.38;5072028;28;20232;-83
2021/08/31 10:41:47;;;;;;;6.28;5.78;;;;;;;27.54;100.00;96390.19;5071939;28;20201;-83
2021/08/31 10:44:37;;;;;;;6.78;6.05;;;;;;;27.89;100.00;96389.56;5071760;28;20320;-83
2021/08/31 10:47:14;;;;;;;6.53;6.03;;;;;;;28.02;100.00;96402.53;5072235;28;20280;-83
2021/08/31 10:50:19;;;;;;;7.13;6.53;;;;;;;27.18;100.00;96404.31;5072133;28;20207;-83
2021/08/31 10:52:56;;;;;;;9.57;6.22;;;;;;;27.61;100.00;96397.00;5071667;28;20649;-83
2021/08/31 10:55:43;;;;;;;6.20;5.70;;;;;;;27.49;100.00;96393.69;5072066;28;20769;-83
2021/08/31 10:58:13;;;;;;;8.27;6.55;;;;;;;26.98;100.00;96391.50;5072260;28;20217;-83
2021/08/31 11:00:52;;;;;;;6.35;5.75;;;;;;;26.86;100.00;96385.47;5071969;28;20193;-83
2021/08/31 11:03:41;;;;;;;6.57;5.97;;;;;;;27.48;100.00;96381.28;5071561;28;20193;-83
2021/08/31 11:06:28;;;;;;;9.77;8.98;;;;;;;27.46;100.00;96386.13;5071901;28;20229;-83
2021/08/31 11:09:10;;;;;;;13.32;12.32;;;;;;;27.99;100.00;96381.50;5071877;28;20185;-83
2021/08/31 11:11:39;;;;;;;7.40;6.70;;;;;;;28.03;100.00;96379.06;5071766;28;20677;-83
2021/08/31 11:14:07;;;;;;;6.50;6.00;;;;;;;28.06;100.00;96379.34;5071172;28;20666;-83
2021/08/31 11:16:37;;;;;;;6.53;6.03;;;;;;;27.80;100.00;96367.66;5071710;28;20200;-83
2021/08/31 11:19:22;;;;;;;6.43;5.82;;;;;;;27.55;100.00;96362.94;5071661;28;20577;-83
2021/08/31 11:21:51;;;;;;;6.72;6.13;;;;;;;27.02;100.00;96367.53;5072053;28;20232;-83
2021/08/31 11:24:18;;;;;;;6.78;5.97;;;;;;;27.37;100.00;96366.13;5071552;28;20207;-83
2021/08/31 11:26:46;;;;;;;6.35;5.78;;;;;;;27.90;100.00;96377.66;5071736;28;20197;-83
2021/08/31 11:29:15;;;;;;;6.00;5.50;;;;;;;27.76;100.00;96373.84;5071415;28;20197;-83
2021/08/31 11:31:42;;;;;;;6.38;5.85;;;;;;;27.26;100.00;96368.78;5071562;28;20224;-82
2021/08/31 11:34:11;;;;;;;6.95;6.20;;;;;;;27.74;100.00;96368.66;5071457;28;20594;-83